createdAt,value
2022-11-20T00:00:14.523Z,-14.81
2022-11-20T00:03:18.832Z,-14.74
2022-11-20T00:06:23.328Z,-14.71
2022-11-20T00:09:26.606Z,-14.77
2022-11-20T00:12:29.756Z,-14.74
2022-11-20T00:15:33.218Z,-14.72
2022-11-20T00:18:36.428Z,-14.79
2022-11-20T00:21:39.654Z,-14.91
2022-11-20T00:24:43.311Z,-15.03
2022-11-20T00:27:46.793Z,-14.99
2022-11-20T00:30:50.002Z,-15.00
2022-11-20T00:33:53.954Z,-14.95
2022-11-20T00:36:57.158Z,-15.00
2022-11-20T00:40:00.437Z,-14.91
2022-11-20T00:43:03.620Z,-14.82
2022-11-20T00:46:10.515Z,-14.82
2022-11-20T00:49:13.802Z,-14.87
2022-11-20T00:52:17.044Z,-14.92
2022-11-20T00:55:20.355Z,-14.99
2022-11-20T00:58:25.139Z,-14.96
2022-11-20T01:01:30.747Z,-14.89
2022-11-20T01:04:34.141Z,-14.87
2022-11-20T01:07:37.478Z,-14.81
2022-11-20T01:10:40.716Z,-14.77
2022-11-20T01:13:45.110Z,-14.75
2022-11-20T01:16:51.783Z,-14.87
2022-11-20T01:19:54.968Z,-14.87
2022-11-20T01:22:58.289Z,-14.79
2022-11-20T01:26:06.001Z,-14.71
2022-11-20T01:29:14.562Z,-14.65
2022-11-20T01:32:17.945Z,-14.68
2022-11-20T01:35:22.118Z,-14.65
2022-11-20T01:38:25.567Z,-14.64
2022-11-20T01:41:51.638Z,-14.70
2022-11-20T01:45:02.742Z,-14.59
2022-11-20T01:48:06.255Z,-14.47
2022-11-20T01:51:18.882Z,-14.40
2022-11-20T01:54:39.188Z,-14.37
2022-11-20T01:58:47.207Z,-14.33
2022-11-20T02:02:16.631Z,-14.34
2022-11-20T02:05:33.011Z,-14.12
2022-11-20T02:08:56.662Z,-14.04
2022-11-20T02:12:01.057Z,-14.04
2022-11-20T02:15:04.601Z,-13.94
2022-11-20T02:18:39.771Z,-13.77
2022-11-20T02:22:09.853Z,-13.64
2022-11-20T02:25:14.106Z,-13.68
2022-11-20T02:28:19.486Z,-13.66
2022-11-20T02:31:23.666Z,-13.66
2022-11-20T02:34:27.536Z,-13.63
2022-11-20T02:37:35.084Z,-13.59
2022-11-20T02:40:38.559Z,-13.47
2022-11-20T02:44:49.960Z,-13.38
2022-11-20T02:47:54.526Z,-13.35
2022-11-20T02:51:26.886Z,-13.32
2022-11-20T02:54:42.422Z,-13.33
2022-11-20T02:57:46.066Z,-13.23
2022-11-20T03:01:04.075Z,-13.08
2022-11-20T03:04:07.593Z,-12.87
2022-11-20T03:07:11.421Z,-12.73
2022-11-20T03:10:18.023Z,-12.52
2022-11-20T03:14:25.623Z,-12.25
2022-11-20T03:22:17.802Z,-11.93
2022-11-20T03:25:49.393Z,-11.80
2022-11-20T03:28:58.092Z,-11.63
2022-11-20T03:32:01.514Z,-11.44
2022-11-20T03:35:05.032Z,-11.20
2022-11-20T03:38:08.208Z,-11.04
2022-11-20T03:59:23.278Z,-10.63
2022-11-20T04:02:30.098Z,-10.44
2022-11-20T04:06:03.372Z,-10.35
2022-11-20T04:09:07.846Z,-10.20
2022-11-20T04:12:11.130Z,-10.16
2022-11-20T04:15:14.395Z,-10.09
2022-11-20T04:18:22.362Z,-10.06
2022-11-20T04:21:26.645Z,-10.06
2022-11-20T04:24:30.692Z,-9.88
2022-11-20T04:28:18.644Z,-9.76
2022-11-20T04:35:49.311Z,-9.54
2022-11-20T04:39:02.208Z,-9.59
2022-11-20T04:42:29.537Z,-9.58
2022-11-20T04:45:39.440Z,-9.47
2022-11-20T04:48:43.189Z,-9.37
2022-11-20T04:51:49.393Z,-9.34
2022-11-20T04:55:04.955Z,-9.31
2022-11-20T04:58:11.764Z,-9.19
2022-11-20T05:02:22.743Z,-9.14
2022-11-20T05:06:38.930Z,-9.09
2022-11-20T05:09:42.579Z,-8.99
2022-11-20T05:12:46.166Z,-8.96
2022-11-20T05:16:19.983Z,-8.86
2022-11-20T05:19:26.970Z,-8.84
2022-11-20T05:22:30.391Z,-8.91
2022-11-20T05:45:24.171Z,-8.72
2022-11-20T05:49:04.313Z,-8.52
2022-11-20T05:56:13.676Z,-8.36
2022-11-20T05:59:17.231Z,-8.40
2022-11-20T06:02:38.602Z,-8.34
2022-11-20T06:05:47.277Z,-8.33
2022-11-20T06:08:56.145Z,-8.27
2022-11-20T06:12:05.010Z,-8.20
2022-11-20T06:15:13.250Z,-8.13
2022-11-20T06:18:21.422Z,-8.07
2022-11-20T06:21:25.705Z,-7.99
2022-11-20T06:24:29.131Z,-7.98
2022-11-20T06:27:32.900Z,-7.99
2022-11-20T06:30:54.571Z,-7.92
2022-11-20T06:33:58.376Z,-7.81
2022-11-20T06:37:30.896Z,-7.71
2022-11-20T06:40:44.428Z,-7.54
2022-11-20T06:43:59.721Z,-7.36
2022-11-20T06:47:51.239Z,-6.77
2022-11-20T06:50:59.174Z,-6.67
2022-11-20T06:54:30.707Z,-6.74
2022-11-20T06:57:44.564Z,-6.94
2022-11-20T07:01:02.895Z,-7.03
2022-11-20T07:04:25.888Z,-7.12
2022-11-20T07:07:32.677Z,-7.16
2022-11-20T07:10:40.335Z,-7.18
2022-11-20T07:13:52.974Z,-7.13
2022-11-20T07:17:14.915Z,-7.20
2022-11-20T07:20:27.692Z,-7.22
2022-11-20T07:23:41.589Z,-7.29
2022-11-20T07:26:55.121Z,-7.20
2022-11-20T07:30:21.886Z,-7.23
2022-11-20T07:33:34.851Z,-7.26
2022-11-20T07:36:51.861Z,-7.34
2022-11-20T07:39:59.421Z,-7.34
2022-11-20T07:43:35.932Z,-7.39
2022-11-20T07:47:02.003Z,-7.46
2022-11-20T07:50:20.075Z,-7.58
2022-11-20T07:53:27.096Z,-7.71
2022-11-20T07:56:59.298Z,-7.78
2022-11-20T08:00:25.736Z,-7.89
2022-11-20T08:07:57.092Z,-8.16
2022-11-20T08:11:21.782Z,-8.30
2022-11-20T08:14:25.033Z,-8.37
2022-11-20T08:17:33.562Z,-8.41
2022-11-20T08:20:40.592Z,-8.47
2022-11-20T08:23:47.065Z,-8.54
2022-11-20T08:26:50.653Z,-8.61
2022-11-20T08:38:27.745Z,-8.82
2022-11-20T08:41:34.493Z,-8.86
2022-11-20T08:44:37.591Z,-8.91
2022-11-20T08:53:05.382Z,-9.02
2022-11-20T08:56:56.568Z,-9.23
2022-11-20T09:00:25.075Z,-9.45
2022-11-20T09:13:39.260Z,-9.96
2022-11-20T09:16:42.747Z,-10.13
2022-11-20T09:19:46.573Z,-10.25
2022-11-20T09:22:59.678Z,-10.41
2022-11-20T09:26:07.964Z,-10.44
2022-11-20T09:29:11.083Z,-10.56
2022-11-20T09:32:14.237Z,-10.62
2022-11-20T09:35:17.658Z,-10.63
2022-11-20T09:38:20.861Z,-10.71
2022-11-20T09:41:45.245Z,-10.84
2022-11-20T09:45:06.914Z,-10.91
2022-11-20T09:53:36.742Z,-11.14
2022-11-20T09:56:43.663Z,-11.24
2022-11-20T10:01:03.046Z,-11.27
2022-11-20T10:04:15.515Z,-11.38
2022-11-20T10:07:50.587Z,-11.42
2022-11-20T10:11:08.299Z,-11.44
2022-11-20T10:14:58.146Z,-11.52
2022-11-20T10:28:16.830Z,-11.73
2022-11-20T10:41:21.357Z,-11.97
2022-11-20T10:44:52.324Z,-12.10
2022-11-20T10:48:19.129Z,-12.08
2022-11-20T10:51:37.553Z,-12.17
2022-11-20T10:54:50.603Z,-12.11
2022-11-20T10:58:04.096Z,-12.10
2022-11-20T11:01:18.434Z,-12.18
2022-11-20T11:04:51.588Z,-12.22
2022-11-20T11:08:03.283Z,-12.22
2022-11-20T11:11:29.510Z,-12.34
2022-11-20T11:14:55.016Z,-12.41
2022-11-20T11:17:59.888Z,-12.39
2022-11-20T11:21:05.914Z,-12.31
2022-11-20T11:24:42.273Z,-12.36
2022-11-20T11:28:04.988Z,-12.36
2022-11-20T11:31:08.898Z,-12.46
2022-11-20T11:34:20.255Z,-12.53
2022-11-20T11:37:26.903Z,-12.65
2022-11-20T11:40:41.840Z,-12.70
2022-11-20T11:44:36.603Z,-12.76
2022-11-20T11:47:44.335Z,-12.84
2022-11-20T11:50:53.533Z,-12.90
2022-11-20T11:53:58.601Z,-12.93
2022-11-20T11:57:07.096Z,-12.95
2022-11-20T12:00:14.801Z,-13.02
2022-11-20T12:03:32.589Z,-12.97
2022-11-20T12:06:39.708Z,-12.95
2022-11-20T12:09:49.829Z,-12.87
2022-11-20T12:13:05.918Z,-12.91
2022-11-20T12:16:15.651Z,-12.98
2022-11-20T12:19:18.969Z,-13.07
2022-11-20T12:22:41.561Z,-13.15
2022-11-20T12:25:48.770Z,-13.22
2022-11-20T12:29:14.296Z,-13.32
2022-11-20T12:32:35.859Z,-13.39
2022-11-20T12:35:57.134Z,-13.44
2022-11-20T12:39:06.109Z,-13.53
2022-11-20T12:42:47.750Z,-13.54
2022-11-20T12:46:07.521Z,-13.54
2022-11-20T12:49:22.241Z,-13.53
2022-11-20T12:52:53.449Z,-13.54
2022-11-20T12:56:02.062Z,-13.61
2022-11-20T12:59:04.900Z,-13.67
2022-11-20T13:02:14.277Z,-13.75
2022-11-20T13:05:22.398Z,-13.74
2022-11-20T13:08:29.516Z,-13.87
2022-11-20T13:11:32.734Z,-13.95
2022-11-20T13:14:39.674Z,-14.12
2022-11-20T13:17:50.509Z,-14.16
2022-11-20T13:20:53.674Z,-14.16
2022-11-20T13:24:10.451Z,-14.21
2022-11-20T13:27:13.485Z,-14.21
2022-11-20T13:30:19.997Z,-14.23
2022-11-20T13:33:46.546Z,-14.25
2022-11-20T13:36:54.847Z,-14.29
2022-11-20T13:40:09.811Z,-14.36
2022-11-20T13:43:34.580Z,-14.39
2022-11-20T13:46:45.003Z,-14.40
2022-11-20T13:49:49.763Z,-14.43
2022-11-20T13:53:24.224Z,-14.44
2022-11-20T13:56:39.279Z,-14.37
2022-11-20T13:59:58.835Z,-14.46
2022-11-20T14:03:08.129Z,-14.54
2022-11-20T14:06:21.785Z,-14.56
2022-11-20T14:09:33.613Z,-14.57
2022-11-20T14:12:38.442Z,-14.67
2022-11-20T14:15:45.125Z,-14.72
2022-11-20T14:18:48.533Z,-14.72
2022-11-20T14:21:55.222Z,-14.78
2022-11-20T14:25:09.565Z,-14.74
2022-11-20T14:28:20.670Z,-14.81
2022-11-20T14:31:27.900Z,-14.96
2022-11-20T14:34:34.362Z,-14.93
2022-11-20T14:37:40.740Z,-15.20
2022-11-20T14:40:43.976Z,-15.19
2022-11-20T14:43:54.768Z,-15.26
2022-11-20T14:46:58.721Z,-15.36
2022-11-20T14:50:07.417Z,-15.31
2022-11-20T14:53:24.620Z,-15.30
2022-11-20T14:56:27.717Z,-15.34
2022-11-20T14:59:35.990Z,-15.41
2022-11-20T15:02:47.792Z,-15.47
2022-11-20T15:05:51.977Z,-15.59
2022-11-20T15:08:55.796Z,-15.59
2022-11-20T15:12:05.809Z,-15.58
2022-11-20T15:15:14.023Z,-15.57
2022-11-20T15:18:32.396Z,-15.65
2022-11-20T15:21:35.606Z,-15.69
2022-11-20T15:24:38.712Z,-15.72
2022-11-20T15:27:42.085Z,-15.76
2022-11-20T15:30:47.174Z,-15.75
2022-11-20T15:33:51.281Z,-15.83
2022-11-20T15:36:54.820Z,-15.82
2022-11-20T15:39:57.897Z,-15.86
2022-11-20T15:43:13.731Z,-15.85
2022-11-20T15:46:22.660Z,-15.82
2022-11-20T15:49:27.054Z,-15.90
2022-11-20T15:52:40.238Z,-15.99
2022-11-20T15:55:44.569Z,-16.00
2022-11-20T15:58:47.810Z,-16.09
2022-11-20T16:01:51.210Z,-16.13
2022-11-20T16:04:54.342Z,-16.20
2022-11-20T16:07:57.874Z,-16.17
2022-11-20T16:11:00.979Z,-16.18
2022-11-20T16:14:25.880Z,-16.31
2022-11-20T16:17:44.007Z,-16.38
2022-11-20T16:20:49.408Z,-16.38
2022-11-20T16:23:58.588Z,-16.38
2022-11-20T16:27:01.713Z,-16.53
2022-11-20T16:30:05.239Z,-16.52
2022-11-20T16:33:16.319Z,-16.48
2022-11-20T16:36:22.728Z,-16.51
2022-11-20T16:39:29.895Z,-16.60
2022-11-20T16:42:36.883Z,-16.70
2022-11-20T16:45:45.467Z,-16.83
2022-11-20T16:48:59.391Z,-16.59
2022-11-20T16:52:02.534Z,-16.55
2022-11-20T16:55:06.029Z,-16.67
2022-11-20T16:58:09.929Z,-16.77
2022-11-20T17:01:16.483Z,-16.75
2022-11-20T17:04:19.577Z,-16.72
2022-11-20T17:07:22.819Z,-16.69
2022-11-20T17:10:26.111Z,-16.73
2022-11-20T17:13:33.925Z,-16.84
2022-11-20T17:16:39.600Z,-16.79
2022-11-20T17:19:42.662Z,-16.86
2022-11-20T17:22:46.407Z,-16.89
2022-11-20T17:25:49.966Z,-17.10
2022-11-20T17:28:59.237Z,-17.03
2022-11-20T17:32:02.392Z,-17.13
2022-11-20T17:35:05.852Z,-17.24
2022-11-20T17:38:08.947Z,-17.36
2022-11-20T17:41:13.281Z,-17.49
2022-11-20T17:44:16.376Z,-17.56
2022-11-20T17:47:19.493Z,-17.53
2022-11-20T17:50:22.849Z,-17.45
2022-11-20T17:53:25.913Z,-17.42
2022-11-20T17:56:51.828Z,-17.49
2022-11-20T17:59:55.017Z,-17.39
2022-11-20T18:02:58.417Z,-17.39
2022-11-20T18:06:11.038Z,-17.36
2022-11-20T18:09:14.220Z,-17.38
2022-11-20T18:12:17.312Z,-17.36
2022-11-20T18:15:20.780Z,-17.48
2022-11-20T18:18:23.963Z,-17.48
2022-11-20T18:21:29.773Z,-17.48
2022-11-20T18:24:33.861Z,-17.42
2022-11-20T18:27:37.088Z,-17.42
2022-11-20T18:30:40.159Z,-17.46
2022-11-20T18:33:43.424Z,-17.58
2022-11-20T18:36:46.770Z,-17.49
2022-11-20T18:39:50.946Z,-17.60
2022-11-20T18:43:17.071Z,-17.48
2022-11-20T18:46:22.527Z,-17.58
2022-11-20T18:49:25.761Z,-17.71
2022-11-20T18:52:34.676Z,-17.66
2022-11-20T18:55:37.489Z,-17.88
2022-11-20T18:58:41.759Z,-17.86
2022-11-20T19:01:45.139Z,-17.95
2022-11-20T19:04:48.774Z,-17.87
2022-11-20T19:07:51.959Z,-17.91
2022-11-20T19:10:54.988Z,-18.02
2022-11-20T19:13:59.018Z,-17.95
2022-11-20T19:17:02.420Z,-17.97
2022-11-20T19:20:06.084Z,-18.08
2022-11-20T19:23:09.236Z,-18.15
2022-11-20T19:26:12.217Z,-18.28
2022-11-20T19:29:16.908Z,-18.28
2022-11-20T19:32:21.435Z,-18.36
2022-11-20T19:35:25.831Z,-18.32
2022-11-20T19:38:28.923Z,-18.30
2022-11-20T19:41:33.473Z,-18.40
2022-11-20T19:44:36.859Z,-18.40
2022-11-20T19:48:09.033Z,-18.36
2022-11-20T19:51:17.829Z,-18.35
2022-11-20T19:54:20.944Z,-18.28
2022-11-20T19:57:24.044Z,-18.30
2022-11-20T20:00:32.283Z,-18.25
2022-11-20T20:03:35.771Z,-18.36
2022-11-20T20:06:40.510Z,-18.28
2022-11-20T20:09:43.535Z,-18.36
2022-11-20T20:12:46.725Z,-18.50
2022-11-20T20:15:49.883Z,-18.47
2022-11-20T20:18:58.318Z,-18.46
2022-11-20T20:22:02.434Z,-18.52
2022-11-20T20:25:07.133Z,-18.52
2022-11-20T20:28:10.255Z,-18.57
2022-11-20T20:31:15.549Z,-18.47
2022-11-20T20:34:18.706Z,-18.54
2022-11-20T20:37:23.219Z,-18.50
2022-11-20T20:40:26.359Z,-18.49
2022-11-20T20:43:29.970Z,-18.53
2022-11-20T20:46:33.389Z,-18.75
2022-11-20T20:49:36.554Z,-18.98
2022-11-20T20:52:39.883Z,-19.06
2022-11-20T20:55:42.993Z,-19.26
2022-11-20T20:58:46.398Z,-19.36
2022-11-20T21:01:50.944Z,-19.40
2022-11-20T21:04:54.121Z,-19.46
2022-11-20T21:08:15.544Z,-19.53
2022-11-20T21:11:20.548Z,-19.60
2022-11-20T21:14:23.910Z,-19.58
2022-11-20T21:17:27.966Z,-19.57
2022-11-20T21:20:49.594Z,-19.53
2022-11-20T21:23:54.020Z,-19.58
2022-11-20T21:26:58.465Z,-19.50
2022-11-20T21:30:01.588Z,-19.29
2022-11-20T21:33:04.794Z,-19.26
2022-11-20T21:36:09.256Z,-19.19
2022-11-20T21:39:13.056Z,-19.15
2022-11-20T21:42:16.284Z,-19.19
2022-11-20T21:45:19.403Z,-19.26
2022-11-20T21:48:22.508Z,-19.22
2022-11-20T21:51:28.584Z,-19.19
2022-11-20T21:54:32.161Z,-19.40
2022-11-20T21:57:35.566Z,-19.53
2022-11-20T22:00:38.684Z,-19.57
2022-11-20T22:03:42.467Z,-19.55
2022-11-20T22:06:45.938Z,-19.51
2022-11-20T22:09:49.776Z,-19.49
2022-11-20T22:13:14.580Z,-19.53
2022-11-20T22:16:18.255Z,-19.51
2022-11-20T22:19:22.927Z,-19.51
2022-11-20T22:22:25.964Z,-19.44
2022-11-20T22:25:29.058Z,-19.36
2022-11-20T22:28:32.943Z,-19.38
2022-11-20T22:31:36.029Z,-19.30
2022-11-20T22:34:39.151Z,-19.29
2022-11-20T22:37:42.310Z,-19.29
2022-11-20T22:40:47.296Z,-19.37
2022-11-20T22:43:58.382Z,-19.37
2022-11-20T22:47:01.765Z,-19.41
2022-11-20T22:50:05.137Z,-19.47
2022-11-20T22:53:08.398Z,-19.55
2022-11-20T22:56:16.065Z,-19.61
2022-11-20T22:59:19.327Z,-19.71
2022-11-20T23:02:22.477Z,-19.74
2022-11-20T23:05:25.647Z,-19.64
2022-11-20T23:08:29.297Z,-19.63
2022-11-20T23:11:33.087Z,-19.57
2022-11-20T23:14:36.274Z,-19.64
2022-11-20T23:17:39.397Z,-19.46
2022-11-20T23:20:42.547Z,-19.43
2022-11-20T23:23:50.036Z,-19.38
2022-11-20T23:26:53.342Z,-19.37
2022-11-20T23:29:59.586Z,-19.46
2022-11-20T23:33:02.861Z,-19.61
2022-11-20T23:36:06.925Z,-19.67
2022-11-20T23:39:10.636Z,-19.82
2022-11-20T23:42:14.537Z,-19.82
2022-11-20T23:45:17.675Z,-19.77
2022-11-20T23:48:22.579Z,-19.72
2022-11-20T23:51:25.686Z,-19.70
2022-11-20T23:54:29.116Z,-19.72
2022-11-20T23:57:32.310Z,-19.68
